createdAt,value
2023-03-05T00:03:07.146Z,5.65
2023-03-05T00:06:21.223Z,5.50
2023-03-05T00:09:35.827Z,5.70
2023-03-05T00:12:48.586Z,5.55
2023-03-05T00:16:03.561Z,5.55
2023-03-05T00:19:16.302Z,5.97
2023-03-05T00:22:28.629Z,6.03
2023-03-05T00:25:41.381Z,5.37
2023-03-05T00:28:55.029Z,5.20
2023-03-05T00:32:07.776Z,5.78
2023-03-05T00:35:20.179Z,5.10
2023-03-05T00:38:33.674Z,5.75
2023-03-05T00:41:46.144Z,5.90
2023-03-05T00:44:58.794Z,6.32
2023-03-05T00:48:11.139Z,5.45
2023-03-05T00:51:24.673Z,6.22
2023-03-05T00:54:36.971Z,6.25
2023-03-05T00:57:49.604Z,6.40
2023-03-05T01:01:02.856Z,6.53
2023-03-05T01:04:15.566Z,6.28
2023-03-05T01:07:27.874Z,7.12
2023-03-05T01:10:40.689Z,6.72
2023-03-05T01:13:53.007Z,5.90
2023-03-05T01:17:06.692Z,6.18
2023-03-05T01:20:19.897Z,6.20
2023-03-05T01:23:34.460Z,7.15
2023-03-05T01:26:47.138Z,7.25
2023-03-05T01:29:59.736Z,6.82
2023-03-05T01:33:12.043Z,6.72
2023-03-05T01:36:25.269Z,7.30
2023-03-05T01:39:37.696Z,6.47
2023-03-05T01:42:56.766Z,7.60
2023-03-05T01:46:39.523Z,6.72
2023-03-05T01:49:54.261Z,7.32
2023-03-05T01:53:06.807Z,7.15
2023-03-05T01:56:19.419Z,7.28
2023-03-05T01:59:31.833Z,7.70
2023-03-05T02:02:45.020Z,7.03
2023-03-05T02:05:57.633Z,6.53
2023-03-05T02:09:10.162Z,6.37
2023-03-05T02:12:23.005Z,6.50
2023-03-05T02:15:36.041Z,6.78
2023-03-05T02:18:48.392Z,7.82
2023-03-05T02:22:01.122Z,6.82
2023-03-05T02:25:17.357Z,6.30
2023-03-05T02:28:39.836Z,6.40
2023-03-05T02:31:53.170Z,6.87
2023-03-05T02:35:06.222Z,6.85
2023-03-05T02:38:19.696Z,6.95
2023-03-05T02:41:35.079Z,7.00
2023-03-05T02:44:47.541Z,7.45
2023-03-05T02:48:01.654Z,6.50
2023-03-05T02:51:14.417Z,6.45
2023-03-05T02:54:28.300Z,7.07
2023-03-05T02:57:40.939Z,7.07
2023-03-05T03:00:53.745Z,7.45
2023-03-05T03:04:06.227Z,7.03
2023-03-05T03:07:18.995Z,6.12
2023-03-05T03:10:31.382Z,7.07
2023-03-05T03:13:44.012Z,6.32
2023-03-05T03:16:56.419Z,7.07
2023-03-05T03:20:10.457Z,6.35
2023-03-05T03:23:23.292Z,6.18
2023-03-05T03:26:35.931Z,7.50
2023-03-05T03:29:48.232Z,6.28
2023-03-05T03:33:00.821Z,6.80
2023-03-05T03:36:13.137Z,6.18
2023-03-05T03:39:25.758Z,7.47
2023-03-05T03:42:38.051Z,6.50
2023-03-05T03:45:50.692Z,6.00
2023-03-05T03:49:03.169Z,6.25
2023-03-05T03:52:15.918Z,6.68
2023-03-05T03:55:28.269Z,6.43
2023-03-05T03:58:40.906Z,7.97
2023-03-05T04:01:53.209Z,9.05
2023-03-05T04:05:06.348Z,9.38
2023-03-05T04:08:18.709Z,11.45
2023-03-05T04:11:31.545Z,8.77
2023-03-05T04:14:50.023Z,7.05
2023-03-05T04:18:02.704Z,6.72
2023-03-05T04:21:15.104Z,6.10
2023-03-05T04:24:27.749Z,6.55
2023-03-05T04:27:42.769Z,6.15
2023-03-05T04:30:55.395Z,6.90
2023-03-05T04:34:07.807Z,7.18
2023-03-05T04:37:20.372Z,6.62
2023-03-05T04:40:32.806Z,6.45
2023-03-05T04:43:45.421Z,6.53
2023-03-05T04:46:57.774Z,7.07
2023-03-05T04:50:11.740Z,6.10
2023-03-05T04:53:24.084Z,6.05
2023-03-05T04:56:36.676Z,6.20
2023-03-05T04:59:48.996Z,6.05
2023-03-05T05:03:01.690Z,5.93
2023-03-05T05:06:14.055Z,6.03
2023-03-05T05:09:26.650Z,6.18
2023-03-05T05:12:39.093Z,6.28
2023-03-05T05:15:51.886Z,4.85
2023-03-05T05:19:04.339Z,5.97
2023-03-05T05:22:16.975Z,5.28
2023-03-05T05:25:29.375Z,6.00
2023-03-05T05:28:45.640Z,5.35
2023-03-05T05:31:58.021Z,5.70
2023-03-05T05:35:10.980Z,5.75
2023-03-05T05:38:23.286Z,6.22
2023-03-05T05:41:35.900Z,5.90
2023-03-05T05:44:48.248Z,6.12
2023-03-05T05:48:00.888Z,5.80
2023-03-05T05:51:15.108Z,5.80
2023-03-05T05:54:27.744Z,7.95
2023-03-05T05:57:40.179Z,8.68
2023-03-05T06:00:52.797Z,8.55
2023-03-05T06:04:05.377Z,8.13
2023-03-05T06:07:17.731Z,8.27
2023-03-05T06:10:30.352Z,8.85
2023-03-05T06:13:42.713Z,8.00
2023-03-05T06:16:55.432Z,7.00
2023-03-05T06:20:08.564Z,7.30
2023-03-05T06:23:21.213Z,8.05
2023-03-05T06:26:33.540Z,8.05
2023-03-05T06:29:46.192Z,8.98
2023-03-05T06:32:59.606Z,9.50
2023-03-05T06:36:13.713Z,10.50
2023-03-05T06:39:26.009Z,9.45
2023-03-05T06:42:38.680Z,7.22
2023-03-05T06:46:00.872Z,7.12
2023-03-05T06:49:13.497Z,6.60
2023-03-05T06:52:25.868Z,9.40
2023-03-05T06:55:39.833Z,8.30
2023-03-05T06:58:52.218Z,7.60
2023-03-05T07:02:04.945Z,8.55
2023-03-05T07:05:17.403Z,8.80
2023-03-05T07:08:30.061Z,9.00
2023-03-05T07:11:42.508Z,14.48
2023-03-05T07:14:55.118Z,14.50
2023-03-05T07:18:07.536Z,14.15
2023-03-05T07:21:24.351Z,8.88
2023-03-05T07:24:36.825Z,8.03
2023-03-05T07:27:49.443Z,11.12
2023-03-05T07:31:22.592Z,6.85
2023-03-05T07:34:37.601Z,7.68
2023-03-05T07:37:50.269Z,23.40
2023-03-05T07:41:19.886Z,19.90
2023-03-05T07:44:32.252Z,12.10
2023-03-05T07:47:44.905Z,8.57
2023-03-05T07:51:01.963Z,10.07
2023-03-05T07:57:26.717Z,8.45
2023-03-05T08:00:39.533Z,9.25
2023-03-05T08:03:52.244Z,8.30
2023-03-05T08:07:04.695Z,13.23
2023-03-05T08:10:17.472Z,10.07
2023-03-05T08:13:29.778Z,7.80
2023-03-05T08:16:42.464Z,8.40
2023-03-05T08:19:57.740Z,8.88
2023-03-05T08:23:10.353Z,9.13
2023-03-05T08:26:23.513Z,8.52
2023-03-05T08:29:36.238Z,9.88
2023-03-05T08:32:49.410Z,9.38
2023-03-05T08:36:01.997Z,9.68
2023-03-05T08:39:14.343Z,7.82
2023-03-05T08:42:26.969Z,8.75
2023-03-05T08:45:40.107Z,9.20
2023-03-05T08:48:52.708Z,7.87
2023-03-05T08:52:05.184Z,8.20
2023-03-05T08:55:17.912Z,8.48
2023-03-05T08:58:30.252Z,8.90
2023-03-05T09:01:42.968Z,8.45
2023-03-05T09:04:55.319Z,8.52
2023-03-05T09:08:07.948Z,8.02
2023-03-05T09:11:20.683Z,12.32
2023-03-05T09:14:33.317Z,6.47
2023-03-05T09:17:45.707Z,6.60
2023-03-05T09:20:58.284Z,7.47
2023-03-05T09:24:11.859Z,6.10
2023-03-05T09:27:24.473Z,6.85
2023-03-05T09:30:36.884Z,6.35
2023-03-05T09:33:49.686Z,6.65
2023-03-05T09:37:03.118Z,6.68
2023-03-05T09:40:17.058Z,8.13
2023-03-05T09:44:15.520Z,9.50
2023-03-05T09:47:40.383Z,8.00
2023-03-05T09:51:00.229Z,5.93
2023-03-05T09:54:17.875Z,6.70
2023-03-05T09:57:36.681Z,5.65
2023-03-05T10:00:50.681Z,5.37
2023-03-05T10:04:09.298Z,5.32
2023-03-05T10:07:26.240Z,5.80
2023-03-05T10:10:43.289Z,4.65
2023-03-05T10:13:55.796Z,4.70
2023-03-05T10:17:33.548Z,5.72
2023-03-05T10:20:59.483Z,6.27
2023-03-05T10:24:32.179Z,6.80
2023-03-05T10:28:06.109Z,6.20
2023-03-05T10:31:44.789Z,6.20
2023-03-05T10:35:18.360Z,5.80
2023-03-05T10:38:40.077Z,8.43
2023-03-05T10:42:02.672Z,5.35
2023-03-05T10:45:24.653Z,9.98
2023-03-05T10:48:39.904Z,8.48
2023-03-05T10:52:28.290Z,5.65
2023-03-05T10:55:40.712Z,5.93
2023-03-05T10:58:53.622Z,5.53
2023-03-05T11:02:08.897Z,5.20
2023-03-05T11:06:00.617Z,5.90
2023-03-05T11:09:32.481Z,6.80
2023-03-05T11:12:45.322Z,6.07
2023-03-05T11:16:05.553Z,5.30
2023-03-05T11:19:29.942Z,4.90
2023-03-05T11:22:42.287Z,5.57
2023-03-05T11:26:21.897Z,4.97
2023-03-05T11:29:34.788Z,4.40
2023-03-05T11:32:47.423Z,5.07
2023-03-05T11:36:17.985Z,4.82
2023-03-05T11:39:33.122Z,4.93
2023-03-05T11:42:45.473Z,5.00
2023-03-05T11:46:05.256Z,4.72
2023-03-05T11:49:22.815Z,5.05
2023-03-05T11:52:58.293Z,5.78
2023-03-05T11:56:13.422Z,5.12
2023-03-05T11:59:28.858Z,5.78
2023-03-05T12:02:41.254Z,5.95
2023-03-05T12:05:57.090Z,6.05
2023-03-05T12:09:11.537Z,5.15
2023-03-05T12:12:37.512Z,5.60
2023-03-05T12:15:49.992Z,5.20
2023-03-05T12:19:05.640Z,6.10
2023-03-05T12:22:32.964Z,6.35
2023-03-05T12:25:53.071Z,6.30
2023-03-05T12:29:05.438Z,6.15
2023-03-05T12:32:33.355Z,5.57
2023-03-05T12:35:46.460Z,6.03
2023-03-05T12:39:00.203Z,5.62
2023-03-05T12:42:31.424Z,6.43
2023-03-05T12:45:45.492Z,5.80
2023-03-05T12:48:57.841Z,5.22
2023-03-05T12:52:23.300Z,5.68
2023-03-05T12:55:47.630Z,4.90
2023-03-05T12:59:00.523Z,5.80
2023-03-05T13:02:39.922Z,5.87
2023-03-05T13:05:57.122Z,5.30
2023-03-05T13:09:38.735Z,5.43
2023-03-05T13:12:55.431Z,4.60
2023-03-05T13:16:20.205Z,4.43
2023-03-05T13:19:33.361Z,3.92
2023-03-05T13:22:45.710Z,3.97
2023-03-05T13:26:12.258Z,4.20
2023-03-05T13:29:30.724Z,4.95
2023-03-05T13:32:43.373Z,5.07
2023-03-05T13:35:55.698Z,4.68
2023-03-05T13:39:15.803Z,4.20
2023-03-05T13:42:31.403Z,3.83
2023-03-05T13:45:44.577Z,4.47
2023-03-05T13:48:57.698Z,6.07
2023-03-05T13:52:10.325Z,4.50
2023-03-05T13:55:22.657Z,5.37
2023-03-05T13:58:54.618Z,4.62
2023-03-05T14:02:18.121Z,6.00
2023-03-05T14:05:31.427Z,4.87
2023-03-05T14:08:43.748Z,5.00
2023-03-05T14:11:58.614Z,4.70
2023-03-05T14:15:22.893Z,5.05
2023-03-05T14:18:35.879Z,5.32
2023-03-05T14:21:49.648Z,4.90
2023-03-05T14:25:03.219Z,4.70
2023-03-05T14:28:18.217Z,5.47
2023-03-05T14:31:34.347Z,5.10
2023-03-05T14:34:48.878Z,4.87
2023-03-05T14:38:01.562Z,6.22
2023-03-05T14:41:29.256Z,4.68
2023-03-05T14:44:42.097Z,4.37
2023-03-05T14:47:55.345Z,3.87
2023-03-05T14:51:09.238Z,4.43
2023-03-05T14:54:22.910Z,4.28
2023-03-05T14:57:35.498Z,3.72
2023-03-05T15:00:50.899Z,3.87
2023-03-05T15:04:03.794Z,4.60
2023-03-05T15:07:21.185Z,3.97
2023-03-05T15:10:33.820Z,4.12
2023-03-05T15:13:46.196Z,4.00
2023-03-05T15:16:58.818Z,5.55
2023-03-05T15:20:14.383Z,4.80
2023-03-05T15:23:29.727Z,5.05
2023-03-05T15:26:42.108Z,4.05
2023-03-05T15:29:54.713Z,4.28
2023-03-05T15:33:12.565Z,4.30
2023-03-05T15:36:25.204Z,4.32
2023-03-05T15:39:37.505Z,4.85
2023-03-05T15:42:50.204Z,4.35
2023-03-05T15:46:05.560Z,3.90
2023-03-05T15:49:18.252Z,4.50
